KBRG/BRG METAR and TAF weather

Enter ICAO airport designator
Station Type Date Time Source
KBRG METAR 2019/04/21 08:55 UTC NOAA

KBRG 210855Z AUTO 24007KT 10SM CLR 12/M03 A2997 RMK AO2 T01161030


Station Type Date Time Source
KBRG Decoded METAR 2019/04/21 08:55 UTC NOAA

Station name not available
Apr 21, 2019 - 04:55 AM EDT / 2019.04.21 0855 UTC
Wind: from the WSW (240 degrees) at 8 MPH (7 KT):0
Visibility: 10 mile(s):0
Sky conditions: clear
Temperature: 52.9 F (11.6 C)
Dew Point: 26.6 F (-3.0 C)
Relative Humidity: 35%
Pressure (altimeter): 29.97 in. Hg (1014 hPa)
ob: KBRG 210855Z AUTO 24007KT 10SM CLR 12/M03 A2997 RMK AO2 T01161030
cycle: 9

Station Type Date Time Source
KBRG TAF 2012/07/03 12:12 UTC NOAA

TAF SKBRG 031000Z 031212 VRB02KT 9999 FEW017 SCT080
TEMPO 0312/0317 11005KT VCTS - DZRAFEW015CB BKN070
TEMPO 0318/0323 TSRA FEW017CB BKN070
TEMPO 0400/0402 VCTS FEW020CB
TEMPO 0402/0406 -DZ SCT015CB
TEMPO 0408/0412 00000KT 5000 BCFG FEW005 TX23/0319Z TN10/0411Z

Example: see airport list